NGTA/TRW METAR and TAF weather

Enter ICAO airport designator
Station Type Date Time Source
NGTA METAR 2019/08/24 17:00 UTC NOAA

NGTA 241700Z 06003KT 9999 FEW019 BKN300 28/24 Q1008


Station Type Date Time Source
NGTA Decoded METAR 2019/08/24 17:00 UTC NOAA

Station name not available
Aug 24, 2019 - 01:00 PM EDT / 2019.08.24 1700 UTC
Wind: from the ENE (060 degrees) at 3 MPH (3 KT):0
Visibility: greater than 7 mile(s):0
Sky conditions: mostly cloudy
Temperature: 82 F (28 C)
Dew Point: 75 F (24 C)
Relative Humidity: 78%
Pressure (altimeter): 29.77 in. Hg (1008 hPa)
ob: NGTA 241700Z 06003KT 9999 FEW019 BKN300 28/24 Q1008
cycle: 17

Station Type Date Time Source
NGTA TAF 2019/08/24 18:21 UTC NOAA

TAF NGTA 241713Z 2418/2518 05006KT 9999 SCT018 PROB40
TEMPO 2506/2518 5000 TSRA FEW017CB

Example: see airport list